Time;durP1;ratioP1;P1;durP2;ratioP2;P2;SDS_P1;SDS_P2;PMS_P1;PMS_P2;Temp;Humidity;BMP_temperature;BMP_pressure;BME280_temperature;BME280_humidity;BME280_pressure;Samples;Min_cycle;Max_cycle;Signal;HPM_P1;HPM_P2
2022/09/14 00:00:30;;;;;;;5.25;1.40;;;17.40;96.20;;;;;;4955606;28;20034;-80
2022/09/14 00:02:56;;;;;;;6.22;1.33;;;17.30;96.30;;;;;;4942012;28;20059;-80
2022/09/14 00:05:21;;;;;;;5.80;1.70;;;17.30;96.70;;;;;;4927595;28;20020;-80
2022/09/14 00:07:47;;;;;;;6.45;1.73;;;17.20;97.30;;;;;;4930272;28;20042;-80
2022/09/14 00:10:15;;;;;;;2.35;1.25;;;17.30;96.60;;;;;;4931304;28;20035;-80
2022/09/14 00:12:40;;;;;;;4.65;1.38;;;17.30;98.00;;;;;;4927685;28;20034;-80
2022/09/14 00:15:06;;;;;;;6.63;1.35;;;17.20;97.20;;;;;;4961943;28;20023;-80
2022/09/14 00:17:32;;;;;;;6.88;1.40;;;17.20;98.40;;;;;;4943541;28;20031;-80
2022/09/14 00:19:58;;;;;;;7.22;1.40;;;17.20;98.00;;;;;;4948156;28;20031;-80
2022/09/14 00:22:23;;;;;;;7.30;1.83;;;17.20;99.00;;;;;;4924369;28;20028;-80
2022/09/14 00:24:49;;;;;;;9.90;2.30;;;17.20;98.30;;;;;;4920707;28;20058;-80
2022/09/14 00:27:15;;;;;;;7.75;1.90;;;17.20;98.40;;;;;;4947697;28;20035;-80
2022/09/14 00:29:40;;;;;;;7.90;1.50;;;17.10;98.40;;;;;;4947136;28;20026;-79
2022/09/14 00:32:06;;;;;;;3.53;1.67;;;17.20;99.20;;;;;;4942848;28;20031;-80
2022/09/14 00:34:33;;;;;;;3.78;1.50;;;17.10;98.70;;;;;;4926260;28;20057;-81
2022/09/14 00:36:59;;;;;;;5.75;1.58;;;17.10;99.90;;;;;;4930351;28;21224;-80
2022/09/14 00:39:24;;;;;;;6.90;1.88;;;17.00;99.40;;;;;;4924479;28;20035;-79
2022/09/14 00:41:50;;;;;;;10.18;1.80;;;17.10;99.10;;;;;;4941665;28;20111;-80
2022/09/14 00:44:16;;;;;;;8.30;1.67;;;17.10;99.90;;;;;;4944112;28;20495;-79
2022/09/14 00:46:50;;;;;;;9.98;1.67;;;17.00;99.90;;;;;;4958516;28;20039;-79
2022/09/14 00:49:20;;;;;;;6.90;1.50;;;16.90;99.90;;;;;;4945594;28;20514;-81
2022/09/14 00:51:51;;;;;;;7.82;1.55;;;16.90;99.90;;;;;;4945982;28;20186;-79
2022/09/14 00:54:17;;;;;;;4.88;1.20;;;16.90;99.90;;;;;;4943801;28;20034;-80
2022/09/14 00:56:44;;;;;;;11.05;1.58;;;16.90;99.90;;;;;;4942274;28;20684;-79
2022/09/14 00:59:14;;;;;;;10.05;2.33;;;16.90;99.90;;;;;;4962829;28;20023;-77
2022/09/14 01:01:40;;;;;;;3.75;1.13;;;16.80;99.90;;;;;;4958240;28;20405;-80
2022/09/14 01:04:06;;;;;;;5.97;1.20;;;16.80;99.90;;;;;;4925169;28;20038;-79
2022/09/14 01:06:34;;;;;;;6.45;1.30;;;16.90;99.90;;;;;;4927636;28;20039;-80
2022/09/14 01:09:05;;;;;;;4.30;1.42;;;16.90;99.90;;;;;;4963189;28;20388;-80
2022/09/14 01:12:16;;;;;;;4.88;1.20;;;17.00;99.90;;;;;;4957441;28;20067;-81
2022/09/14 01:14:49;;;;;;;6.60;1.73;;;17.00;99.90;;;;;;4962550;28;20038;-80
2022/09/14 01:17:47;;;;;;;7.82;1.48;;;16.90;99.90;;;;;;4940243;28;20055;-80
2022/09/14 01:20:32;;;;;;;7.47;1.45;;;16.90;99.90;;;;;;4957128;28;20631;-81
2022/09/14 01:23:02;;;;;;;5.05;1.55;;;16.90;99.90;;;;;;4965118;28;20031;-79
2022/09/14 01:25:40;;;;;;;8.65;1.50;;;16.80;99.90;;;;;;4955055;28;21015;-78
2022/09/14 01:28:11;;;;;;;6.95;1.42;;;16.80;99.90;;;;;;4959680;28;20027;-78
2022/09/14 01:30:37;;;;;;;7.72;1.75;;;16.70;99.90;;;;;;4939837;28;20388;-78
2022/09/14 01:33:08;;;;;;;4.72;1.88;;;16.70;99.90;;;;;;4960503;28;20026;-78
2022/09/14 01:35:39;;;;;;;13.27;1.40;;;16.60;99.90;;;;;;4944318;28;20518;-79
2022/09/14 01:38:18;;;;;;;12.77;1.92;;;16.60;99.90;;;;;;4950187;28;20035;-79
2022/09/14 01:40:45;;;;;;;9.10;1.58;;;16.60;99.90;;;;;;4947195;28;20490;-79
2022/09/14 01:43:18;;;;;;;10.68;2.05;;;16.50;99.90;;;;;;4925670;28;20034;-79
2022/09/14 01:45:49;;;;;;;9.15;1.60;;;16.50;99.90;;;;;;4946683;28;20110;-79
2022/09/14 01:48:15;;;;;;;8.80;2.38;;;16.40;99.90;;;;;;4943434;28;20081;-80
2022/09/14 01:50:45;;;;;;;6.70;1.25;;;16.40;99.90;;;;;;4947615;28;20031;-79
2022/09/14 01:53:23;;;;;;;8.55;1.80;;;16.40;99.90;;;;;;4945661;28;20094;-79
2022/09/14 01:55:54;;;;;;;8.30;1.65;;;16.30;99.90;;;;;;4928684;28;20059;-79
2022/09/14 01:58:26;;;;;;;6.85;1.60;;;16.30;99.90;;;;;;4958527;28;20028;-79
2022/09/14 02:00:52;;;;;;;8.23;1.77;;;16.20;99.90;;;;;;4947274;28;20035;-79
2022/09/14 02:03:21;;;;;;;5.82;1.45;;;16.20;99.90;;;;;;4940796;28;20031;-80
2022/09/14 02:06:16;;;;;;;6.53;1.42;;;16.10;99.90;;;;;;4941540;28;20078;-79
2022/09/14 02:08:42;;;;;;;9.95;1.85;;;16.10;99.90;;;;;;4948519;28;20035;-79
2022/09/14 02:11:07;;;;;;;5.50;1.55;;;16.10;99.90;;;;;;4962134;28;20521;-78
2022/09/14 02:13:33;;;;;;;12.77;2.45;;;16.10;99.90;;;;;;4928410;28;20042;-79
2022/09/14 02:15:59;;;;;;;10.57;2.28;;;16.00;99.90;;;;;;4961045;28;20380;-79
2022/09/14 02:18:24;;;;;;;5.85;1.70;;;16.10;99.90;;;;;;4957519;28;20027;-78
2022/09/14 02:20:54;;;;;;;7.05;1.63;;;16.00;99.90;;;;;;4924678;28;20045;-78
2022/09/14 02:23:20;;;;;;;8.07;1.98;;;15.90;99.90;;;;;;4954124;28;20042;-79
2022/09/14 02:25:45;;;;;;;8.75;1.75;;;15.90;99.90;;;;;;4924036;28;20047;-78
2022/09/14 02:28:11;;;;;;;11.85;1.98;;;15.90;99.90;;;;;;4944986;28;20037;-78
2022/09/14 02:30:56;;;;;;;9.70;1.83;;;15.90;99.90;;;;;;4958366;28;20031;-83
2022/09/14 02:33:47;;;;;;;6.00;1.83;;;15.90;99.90;;;;;;4945325;28;20037;-83
2022/09/14 02:36:22;;;;;;;7.25;1.40;;;15.80;99.90;;;;;;4940749;28;20063;-83
2022/09/14 02:38:55;;;;;;;8.60;2.30;;;15.80;99.90;;;;;;4925087;28;20032;-82
2022/09/14 02:41:24;;;;;;;7.60;1.50;;;15.80;99.90;;;;;;4937257;28;20536;-81
2022/09/14 02:44:04;;;;;;;10.40;1.83;;;15.90;99.90;;;;;;4926724;28;20043;-80
2022/09/14 02:47:00;;;;;;;7.03;1.40;;;15.90;99.90;;;;;;4938199;28;20475;-80
2022/09/14 02:49:50;;;;;;;8.63;2.03;;;15.80;99.90;;;;;;4927434;28;20464;-81
2022/09/14 02:52:25;;;;;;;5.05;1.40;;;15.80;99.90;;;;;;4940385;28;20496;-81
2022/09/14 02:54:58;;;;;;;9.13;1.70;;;15.80;99.90;;;;;;4956228;28;20121;-80
2022/09/14 02:57:24;;;;;;;6.47;1.77;;;15.80;99.90;;;;;;4943539;28;20102;-79
2022/09/14 02:59:52;;;;;;;7.00;1.63;;;15.80;99.90;;;;;;4929565;28;20064;-79
2022/09/14 03:02:18;;;;;;;4.70;1.48;;;15.80;99.90;;;;;;4959713;28;20478;-79
2022/09/14 03:04:43;;;;;;;11.20;2.22;;;15.70;99.90;;;;;;4911497;28;20046;-79
2022/09/14 03:07:09;;;;;;;11.52;3.15;;;15.70;99.90;;;;;;4942156;28;20039;-80
2022/09/14 03:09:34;;;;;;;9.85;1.77;;;15.70;99.90;;;;;;4911731;29;20110;-79
2022/09/14 03:12:00;;;;;;;9.63;1.77;;;15.70;99.90;;;;;;4906828;28;20062;-79
2022/09/14 03:14:26;;;;;;;12.35;2.00;;;15.60;99.90;;;;;;4948164;28;20039;-79
2022/09/14 03:16:51;;;;;;;10.43;1.85;;;15.70;99.90;;;;;;4941664;28;20047;-79
2022/09/14 03:19:17;;;;;;;9.15;1.77;;;15.60;99.90;;;;;;4931932;28;20090;-79
2022/09/14 03:21:43;;;;;;;9.10;1.80;;;15.60;99.90;;;;;;4910683;28;20031;-79
2022/09/14 03:24:08;;;;;;;5.25;1.88;;;15.60;99.90;;;;;;4907453;29;20039;-79
2022/09/14 03:26:37;;;;;;;4.68;1.90;;;15.60;99.90;;;;;;4939617;28;20035;-80
2022/09/14 03:29:02;;;;;;;11.48;1.85;;;15.60;99.90;;;;;;4955004;28;20031;-80
2022/09/14 03:31:28;;;;;;;9.80;1.90;;;15.60;99.90;;;;;;4966146;28;20335;-80
2022/09/14 03:33:55;;;;;;;7.07;1.67;;;15.60;99.90;;;;;;4944715;28;20121;-80
2022/09/14 03:36:21;;;;;;;5.80;1.80;;;15.60;99.90;;;;;;4965625;28;20023;-79
2022/09/14 03:38:48;;;;;;;13.07;1.90;;;15.60;99.90;;;;;;4963846;28;20042;-79
2022/09/14 03:41:14;;;;;;;8.45;1.90;;;15.50;99.90;;;;;;4934474;28;20035;-80
2022/09/14 03:43:40;;;;;;;9.07;2.30;;;15.60;99.90;;;;;;4945700;28;20097;-80
2022/09/14 03:46:09;;;;;;;7.10;2.15;;;15.60;99.90;;;;;;4929530;28;20027;-80
2022/09/14 03:48:35;;;;;;;7.13;2.20;;;15.50;99.90;;;;;;4929449;28;20047;-80
2022/09/14 03:51:01;;;;;;;14.43;1.90;;;15.50;99.90;;;;;;4964260;28;20043;-80
2022/09/14 03:53:27;;;;;;;6.30;1.80;;;15.50;99.90;;;;;;4944141;28;20449;-80
2022/09/14 03:55:53;;;;;;;9.25;1.85;;;15.50;99.90;;;;;;4931501;28;20023;-80
2022/09/14 03:58:18;;;;;;;9.63;2.10;;;15.50;99.90;;;;;;4932929;28;20023;-80
2022/09/14 04:00:44;;;;;;;9.85;3.22;;;15.40;99.90;;;;;;4933341;28;20131;-80
2022/09/14 04:03:09;;;;;;;5.72;2.13;;;15.40;99.90;;;;;;4944766;28;20030;-80
2022/09/14 04:05:35;;;;;;;13.05;2.15;;;15.40;99.90;;;;;;4956050;28;20031;-80
2022/09/14 04:08:00;;;;;;;9.60;1.88;;;15.50;99.90;;;;;;4964551;28;20038;-80
2022/09/14 04:10:26;;;;;;;4.53;1.67;;;15.50;99.90;;;;;;4960446;28;20035;-80
2022/09/14 04:12:51;;;;;;;5.57;2.03;;;15.40;99.90;;;;;;4930029;28;20113;-80
2022/09/14 04:15:17;;;;;;;8.23;2.20;;;15.40;99.90;;;;;;4944831;28;20053;-79
2022/09/14 04:17:42;;;;;;;9.70;2.42;;;15.40;99.90;;;;;;4941802;28;20086;-80
2022/09/14 04:20:08;;;;;;;7.22;1.88;;;15.30;99.90;;;;;;4941141;28;20031;-80
2022/09/14 04:22:34;;;;;;;13.32;2.30;;;15.30;99.90;;;;;;4931558;28;20027;-80
2022/09/14 04:24:59;;;;;;;5.97;1.48;;;15.40;99.90;;;;;;4962708;28;20019;-80
2022/09/14 04:27:25;;;;;;;6.38;1.48;;;15.30;99.90;;;;;;4947312;28;20161;-79
2022/09/14 04:29:50;;;;;;;10.50;2.10;;;15.20;99.90;;;;;;4934686;28;20060;-80
2022/09/14 04:32:16;;;;;;;11.18;2.05;;;15.30;99.90;;;;;;4948200;28;20395;-80
2022/09/14 04:34:41;;;;;;;6.10;2.03;;;15.20;99.90;;;;;;4958529;28;20109;-79
2022/09/14 04:37:07;;;;;;;5.45;1.50;;;15.20;99.90;;;;;;4947063;28;20043;-80
2022/09/14 04:39:33;;;;;;;6.47;1.98;;;15.20;99.90;;;;;;4932506;28;20027;-79
2022/09/14 04:41:58;;;;;;;6.82;1.67;;;15.20;99.90;;;;;;4960480;28;20031;-79
2022/09/14 04:44:24;;;;;;;8.13;1.83;;;15.20;99.90;;;;;;4959241;28;20039;-80
2022/09/14 04:46:49;;;;;;;10.07;2.05;;;15.20;99.90;;;;;;4942933;28;20495;-80
2022/09/14 04:49:17;;;;;;;6.40;1.77;;;15.30;99.90;;;;;;4942437;28;20058;-79
2022/09/14 04:51:43;;;;;;;12.38;2.13;;;15.20;99.90;;;;;;4946171;28;20035;-80
2022/09/14 04:54:11;;;;;;;7.55;2.20;;;15.30;99.90;;;;;;4934690;28;20577;-79
2022/09/14 04:56:37;;;;;;;9.57;2.60;;;15.20;99.90;;;;;;4947939;28;20554;-79
2022/09/14 04:59:03;;;;;;;7.60;2.15;;;15.30;99.90;;;;;;4963961;28;20031;-80
2022/09/14 05:01:38;;;;;;;15.73;2.22;;;15.20;99.90;;;;;;4942764;28;20035;-80
2022/09/14 05:04:05;;;;;;;13.93;2.75;;;15.20;99.90;;;;;;4930360;28;20110;-79
2022/09/14 05:06:32;;;;;;;12.60;2.40;;;15.20;99.90;;;;;;4928361;28;20036;-80
2022/09/14 05:08:58;;;;;;;10.93;2.20;;;15.20;99.90;;;;;;4964929;28;20617;-80
2022/09/14 05:11:26;;;;;;;5.85;2.60;;;15.20;99.90;;;;;;4960915;28;20536;-79
2022/09/14 05:13:51;;;;;;;6.90;2.30;;;15.30;99.90;;;;;;4929242;28;20142;-79
2022/09/14 05:16:22;;;;;;;7.93;2.25;;;15.20;99.90;;;;;;4955190;28;20121;-80
2022/09/14 05:18:48;;;;;;;5.88;1.75;;;15.20;99.90;;;;;;4958364;28;20127;-79
2022/09/14 05:21:15;;;;;;;8.00;2.65;;;15.20;99.90;;;;;;4928373;28;20481;-79
2022/09/14 05:23:41;;;;;;;2.10;1.13;;;15.20;99.90;;;;;;4942086;28;20039;-80
2022/09/14 05:26:07;;;;;;;8.10;3.38;;;15.20;99.90;;;;;;4925976;28;20093;-79
2022/09/14 05:28:33;;;;;;;5.60;2.03;;;15.20;99.90;;;;;;4944898;28;20030;-80
2022/09/14 05:30:59;;;;;;;9.88;2.83;;;15.20;99.90;;;;;;4947543;28;20435;-79
2022/09/14 05:33:24;;;;;;;8.57;3.28;;;15.20;99.90;;;;;;4939794;28;20121;-79
2022/09/14 05:35:50;;;;;;;9.68;2.78;;;15.20;99.90;;;;;;4928982;28;20514;-79
2022/09/14 05:38:16;;;;;;;11.13;3.20;;;15.20;99.90;;;;;;4945427;28;20035;-79
2022/09/14 05:40:41;;;;;;;6.90;2.83;;;15.20;99.90;;;;;;4934176;28;20057;-80
2022/09/14 05:43:07;;;;;;;7.80;2.55;;;15.20;99.90;;;;;;4940526;28;20031;-80
2022/09/14 05:45:33;;;;;;;9.65;3.35;;;15.20;99.90;;;;;;4941993;28;20035;-80
2022/09/14 05:48:03;;;;;;;9.18;2.92;;;15.20;99.90;;;;;;4947623;28;20065;-80
2022/09/14 05:50:32;;;;;;;15.68;3.17;;;15.20;99.90;;;;;;4928994;28;20035;-80
2022/09/14 05:52:58;;;;;;;9.45;3.70;;;15.10;99.90;;;;;;4948947;28;20501;-80
2022/09/14 05:55:23;;;;;;;10.07;3.60;;;15.10;99.90;;;;;;4941714;28;20039;-80
2022/09/14 05:57:49;;;;;;;10.93;4.10;;;15.10;99.90;;;;;;4943651;28;20510;-80
2022/09/14 06:00:16;;;;;;;9.98;4.00;;;15.10;99.90;;;;;;4955931;28;20082;-81
2022/09/14 06:02:48;;;;;;;6.55;3.45;;;15.10;99.90;;;;;;4944625;28;20495;-81
2022/09/14 06:05:14;;;;;;;14.07;3.88;;;15.10;99.90;;;;;;4957869;28;20047;-81
2022/09/14 06:07:40;;;;;;;8.52;4.05;;;15.10;99.90;;;;;;4953331;28;20058;-80
2022/09/14 06:10:06;;;;;;;17.83;4.60;;;15.10;99.90;;;;;;4927712;28;20073;-81
2022/09/14 06:12:31;;;;;;;14.05;3.83;;;15.10;99.90;;;;;;4944126;28;20037;-81
2022/09/14 06:15:03;;;;;;;13.32;4.07;;;15.00;99.90;;;;;;4954974;28;20038;-81
2022/09/14 06:17:30;;;;;;;7.97;4.15;;;15.00;99.90;;;;;;4943217;28;20033;-81
2022/09/14 06:19:55;;;;;;;10.10;3.97;;;15.10;99.90;;;;;;4933749;28;20038;-81
2022/09/14 06:22:21;;;;;;;8.15;4.55;;;15.00;99.90;;;;;;4958599;28;20331;-81
2022/09/14 06:24:46;;;;;;;15.57;4.20;;;15.00;99.90;;;;;;4956200;28;20082;-81
2022/09/14 06:27:12;;;;;;;14.60;4.50;;;15.00;99.90;;;;;;4947426;28;20740;-81
2022/09/14 06:29:38;;;;;;;14.73;5.18;;;15.00;99.90;;;;;;4958697;28;20521;-81
2022/09/14 06:32:04;;;;;;;9.05;3.90;;;15.00;99.90;;;;;;4962919;28;20053;-81
2022/09/14 06:34:29;;;;;;;9.27;3.70;;;15.00;99.90;;;;;;4953207;28;20062;-81
2022/09/14 06:36:55;;;;;;;9.18;3.75;;;15.00;99.90;;;;;;4929361;28;20475;-81
2022/09/14 06:39:21;;;;;;;11.80;3.72;;;14.90;99.90;;;;;;4940987;28;20490;-81
2022/09/14 06:41:46;;;;;;;16.23;3.90;;;14.90;99.90;;;;;;4944277;28;20031;-81
2022/09/14 06:44:12;;;;;;;11.10;3.45;;;14.90;99.90;;;;;;4955109;28;20035;-81
2022/09/14 06:46:38;;;;;;;12.77;3.97;;;14.90;99.90;;;;;;4945899;28;20121;-81
2022/09/14 06:49:09;;;;;;;11.43;4.00;;;14.90;99.90;;;;;;4972359;28;20039;-80
2022/09/14 06:51:36;;;;;;;11.13;4.00;;;14.90;99.90;;;;;;4931634;28;20035;-81
2022/09/14 06:54:02;;;;;;;13.25;4.10;;;14.90;99.90;;;;;;4921509;28;20047;-80
2022/09/14 06:56:30;;;;;;;14.63;5.00;;;14.90;99.90;;;;;;4957413;28;20081;-81
2022/09/14 06:58:57;;;;;;;10.60;4.30;;;14.80;99.90;;;;;;4925226;28;20505;-81
2022/09/14 07:01:24;;;;;;;10.75;4.38;;;14.80;99.90;;;;;;4956779;28;20051;-81
2022/09/14 07:03:51;;;;;;;8.38;3.58;;;14.90;99.90;;;;;;4958404;28;20040;-81
2022/09/14 07:06:21;;;;;;;10.27;4.50;;;14.80;99.90;;;;;;4961049;28;20082;-81
2022/09/14 07:08:47;;;;;;;9.90;3.50;;;14.80;99.90;;;;;;4938903;28;20443;-81
2022/09/14 07:11:15;;;;;;;11.70;4.32;;;14.90;99.90;;;;;;4930231;28;20034;-81
2022/09/14 07:13:41;;;;;;;9.13;4.45;;;14.90;99.90;;;;;;4940642;28;20043;-80
2022/09/14 07:16:15;;;;;;;15.00;5.40;;;14.90;99.90;;;;;;4942121;28;20502;-83
2022/09/14 07:18:43;;;;;;;10.68;5.32;;;14.90;99.90;;;;;;4942719;28;20083;-83
2022/09/14 07:21:13;;;;;;;11.05;4.78;;;14.90;99.90;;;;;;4944512;28;20059;-82
2022/09/14 07:23:40;;;;;;;10.45;5.32;;;14.90;99.90;;;;;;4954940;28;20035;-81
2022/09/14 07:26:10;;;;;;;12.50;5.05;;;15.00;99.90;;;;;;4951508;28;20131;-80
2022/09/14 07:28:36;;;;;;;11.90;4.95;;;15.00;99.90;;;;;;4940072;28;20035;-82
2022/09/14 07:31:01;;;;;;;11.18;4.65;;;15.00;99.90;;;;;;4925660;28;20412;-82
2022/09/14 07:33:27;;;;;;;10.88;5.07;;;15.00;99.90;;;;;;4929248;28;20051;-80
2022/09/14 07:35:54;;;;;;;14.07;5.10;;;15.00;99.90;;;;;;4925148;28;20439;-80
2022/09/14 07:38:22;;;;;;;13.13;5.88;;;15.00;99.90;;;;;;4953010;28;20149;-80
2022/09/14 07:40:48;;;;;;;14.90;5.15;;;15.00;99.90;;;;;;4944849;28;20065;-80
2022/09/14 07:43:13;;;;;;;11.10;5.18;;;15.00;99.90;;;;;;4941747;28;20034;-80
2022/09/14 07:45:39;;;;;;;15.02;5.45;;;15.00;99.90;;;;;;4923887;28;20031;-80
2022/09/14 07:48:06;;;;;;;11.13;5.20;;;15.00;99.90;;;;;;4962472;28;20054;-80
2022/09/14 07:50:31;;;;;;;12.40;5.60;;;15.00;99.90;;;;;;4933471;28;20094;-80
2022/09/14 07:52:57;;;;;;;12.75;5.78;;;15.00;99.90;;;;;;4933477;28;20038;-80
2022/09/14 07:55:22;;;;;;;18.95;5.65;;;15.00;99.90;;;;;;4950694;28;20031;-80
2022/09/14 07:57:48;;;;;;;12.63;5.28;;;15.00;99.90;;;;;;4951138;28;20046;-80
2022/09/14 08:00:15;;;;;;;11.77;5.32;;;14.90;99.90;;;;;;4920691;28;20095;-80
2022/09/14 08:02:40;;;;;;;16.33;6.75;;;15.00;99.90;;;;;;4928304;28;20788;-81
2022/09/14 08:05:06;;;;;;;15.50;6.22;;;15.00;99.90;;;;;;4945725;28;20045;-80
2022/09/14 08:07:32;;;;;;;14.50;6.15;;;15.00;99.90;;;;;;4960898;28;20039;-80
2022/09/14 08:09:57;;;;;;;13.15;6.45;;;15.00;99.90;;;;;;4962129;28;20030;-81
2022/09/14 08:12:23;;;;;;;15.30;5.32;;;15.10;99.90;;;;;;4942065;28;20057;-81
2022/09/14 08:14:51;;;;;;;16.83;5.00;;;15.00;99.90;;;;;;4930877;28;20071;-81
2022/09/14 08:17:16;;;;;;;7.85;4.43;;;15.00;99.90;;;;;;4949237;28;20031;-80
2022/09/14 08:19:42;;;;;;;10.50;4.68;;;15.00;99.90;;;;;;4933324;28;20394;-80
2022/09/14 08:22:08;;;;;;;13.73;4.68;;;15.00;99.90;;;;;;4949470;28;20073;-80
2022/09/14 08:24:34;;;;;;;15.32;4.65;;;15.00;99.90;;;;;;4948774;28;20035;-81
2022/09/14 08:27:05;;;;;;;11.07;4.28;;;15.00;99.90;;;;;;4948031;28;20051;-80
2022/09/14 08:29:31;;;;;;;5.43;3.65;;;15.00;99.90;;;;;;4932382;28;20055;-81
2022/09/14 08:31:57;;;;;;;11.02;4.80;;;15.00;99.90;;;;;;4933928;28;20050;-80
2022/09/14 08:34:24;;;;;;;15.30;4.95;;;15.00;99.90;;;;;;4944675;28;20036;-80
2022/09/14 08:36:49;;;;;;;10.02;5.65;;;15.00;99.90;;;;;;4951262;28;20061;-81
2022/09/14 08:39:15;;;;;;;9.88;5.15;;;15.00;99.90;;;;;;4950979;28;20126;-80
2022/09/14 08:41:55;;;;;;;10.68;4.93;;;15.00;99.90;;;;;;4960839;28;20043;-81
2022/09/14 08:44:26;;;;;;;6.57;4.65;;;15.00;99.90;;;;;;4930810;28;20027;-81
2022/09/14 08:47:01;;;;;;;11.15;5.35;;;15.00;99.90;;;;;;4938772;28;20043;-80
2022/09/14 08:49:46;;;;;;;13.57;5.78;;;15.00;99.90;;;;;;4955981;28;20046;-81
2022/09/14 08:52:37;;;;;;;9.50;4.85;;;15.00;99.90;;;;;;4950366;28;20027;-80
2022/09/14 08:55:40;;;;;;;16.75;5.22;;;15.00;99.90;;;;;;4944148;28;20162;-80
2022/09/14 08:58:43;;;;;;;9.90;4.60;;;15.00;99.90;;;;;;4964481;28;20027;-80
2022/09/14 09:01:36;;;;;;;10.27;4.03;;;15.00;99.90;;;;;;4957800;28;20039;-81
2022/09/14 09:04:04;;;;;;;5.03;3.30;;;15.00;99.90;;;;;;4953595;28;20142;-80
2022/09/14 09:06:36;;;;;;;8.73;3.38;;;15.00;99.90;;;;;;4942176;28;20115;-81
2022/09/14 09:09:11;;;;;;;5.13;2.58;;;15.00;99.90;;;;;;4954640;28;20043;-81
2022/09/14 09:11:39;;;;;;;7.78;2.63;;;15.00;99.90;;;;;;4943584;28;20039;-81
2022/09/14 09:14:16;;;;;;;7.60;2.90;;;15.10;99.90;;;;;;4927181;28;20492;-81
2022/09/14 09:16:41;;;;;;;7.25;2.55;;;15.10;99.90;;;;;;4929757;29;20035;-80
2022/09/14 09:19:09;;;;;;;6.70;3.05;;;15.10;99.90;;;;;;4940988;28;20502;-80
2022/09/14 09:21:42;;;;;;;6.15;2.42;;;15.00;99.90;;;;;;4964887;28;20031;-81
2022/09/14 09:24:38;;;;;;;7.90;2.45;;;15.00;99.90;;;;;;4925756;28;20106;-80
2022/09/14 09:27:13;;;;;;;6.13;2.40;;;15.10;99.90;;;;;;4945723;28;20081;-80
2022/09/14 09:29:39;;;;;;;8.23;3.03;;;15.10;99.90;;;;;;4948154;28;20055;-80
2022/09/14 09:32:15;;;;;;;8.93;3.60;;;15.10;99.90;;;;;;4946196;28;20073;-81
2022/09/14 09:34:41;;;;;;;7.53;3.83;;;15.10;99.90;;;;;;4931186;28;20084;-81
2022/09/14 09:37:14;;;;;;;10.63;3.50;;;15.10;99.90;;;;;;4964073;28;20491;-80
2022/09/14 09:39:40;;;;;;;6.22;3.20;;;15.10;99.90;;;;;;4943849;28;20038;-81
2022/09/14 09:42:25;;;;;;;15.85;3.80;;;15.10;99.90;;;;;;4958466;28;20031;-81
2022/09/14 09:45:01;;;;;;;9.27;4.30;;;15.10;99.90;;;;;;4953236;28;20039;-81
2022/09/14 09:47:37;;;;;;;6.75;4.22;;;15.10;99.90;;;;;;4944073;28;20297;-81
2022/09/14 09:50:13;;;;;;;5.97;3.22;;;15.10;99.90;;;;;;4938290;28;20086;-81
2022/09/14 09:52:53;;;;;;;6.88;3.33;;;15.10;99.90;;;;;;4974433;28;20027;-80
2022/09/14 09:55:20;;;;;;;9.60;4.32;;;15.10;99.90;;;;;;4946995;28;20039;-81
2022/09/14 09:57:46;;;;;;;10.57;4.28;;;15.10;99.90;;;;;;4962750;28;20043;-81
2022/09/14 10:00:17;;;;;;;8.23;4.03;;;15.10;99.90;;;;;;4957213;28;20062;-81
2022/09/14 10:02:43;;;;;;;11.82;3.55;;;15.10;99.90;;;;;;4978250;28;20050;-81
2022/09/14 10:05:08;;;;;;;7.75;3.67;;;15.10;99.90;;;;;;4943234;28;20058;-81
2022/09/14 10:07:36;;;;;;;11.80;3.90;;;15.20;99.90;;;;;;4938302;28;20059;-81
2022/09/14 10:10:03;;;;;;;11.55;3.80;;;15.10;99.90;;;;;;4941809;28;20399;-81
2022/09/14 10:12:29;;;;;;;4.35;3.25;;;15.10;99.90;;;;;;4945890;28;20034;-80
2022/09/14 10:15:15;;;;;;;7.97;3.70;;;15.10;99.90;;;;;;4926839;28;20039;-81
2022/09/14 10:18:08;;;;;;;6.13;3.58;;;15.20;99.90;;;;;;4942839;28;20454;-81
2022/09/14 10:20:34;;;;;;;8.93;4.13;;;15.20;99.90;;;;;;4923865;28;20094;-81
2022/09/14 10:23:19;;;;;;;8.80;4.45;;;15.20;99.90;;;;;;4942458;28;20035;-80
2022/09/14 10:25:49;;;;;;;12.38;4.72;;;15.20;99.90;;;;;;4942151;28;20036;-81
2022/09/14 10:28:28;;;;;;;7.15;4.50;;;15.20;99.90;;;;;;4958872;28;20055;-81
2022/09/14 10:31:18;;;;;;;7.57;4.82;;;15.20;99.90;;;;;;4923597;28;20027;-80
2022/09/14 10:33:56;;;;;;;7.65;4.32;;;15.30;99.90;;;;;;4961075;28;20061;-81
2022/09/14 10:36:29;;;;;;;5.90;5.25;;;15.30;99.90;;;;;;4938720;28;20035;-81
2022/09/14 10:39:22;;;;;;;5.65;5.00;;;15.40;99.90;;;;;;4960754;28;20106;-81
2022/09/14 10:42:09;;;;;;;9.10;5.68;;;15.40;99.90;;;;;;4941093;28;20039;-81
2022/09/14 10:45:06;;;;;;;10.32;5.35;;;15.40;99.90;;;;;;4945765;28;20566;-81
2022/09/14 10:48:08;;;;;;;8.68;6.97;;;15.40;99.90;;;;;;4916336;28;20054;-82
2022/09/14 10:51:10;;;;;;;8.13;5.20;;;15.50;99.90;;;;;;4965362;28;20054;-82
2022/09/14 10:53:44;;;;;;;6.10;4.30;;;15.50;99.90;;;;;;4941613;28;20043;-82
2022/09/14 10:56:21;;;;;;;6.43;3.50;;;15.50;99.90;;;;;;4930435;28;20031;-81
2022/09/14 10:59:30;;;;;;;7.63;2.97;;;15.50;99.90;;;;;;4931379;28;20036;-81
2022/09/14 11:02:19;;;;;;;3.92;2.88;;;15.50;99.90;;;;;;4957132;28;20110;-81
2022/09/14 11:05:14;;;;;;;6.18;3.17;;;15.60;99.90;;;;;;4945831;28;20039;-81
2022/09/14 11:07:51;;;;;;;5.68;3.45;;;15.60;99.90;;;;;;4936441;28;20035;-81
2022/09/14 11:10:37;;;;;;;7.70;3.22;;;15.60;99.90;;;;;;4942174;28;20088;-81
2022/09/14 11:13:05;;;;;;;;;;;15.70;99.90;;;;;;4970011;28;20151;-81
2022/09/14 11:15:36;;;;;;;6.28;2.80;;;15.60;99.90;;;;;;4934468;28;19922;-81
2022/09/14 11:18:14;;;;;;;9.40;2.50;;;15.70;99.90;;;;;;4924794;28;20502;-81
2022/09/14 11:21:13;;;;;;;6.53;2.85;;;15.60;99.90;;;;;;4932944;28;20031;-82
2022/09/14 11:23:39;;;;;;;6.57;2.92;;;15.60;99.90;;;;;;4958962;28;20455;-81
2022/09/14 11:26:30;;;;;;;5.90;3.10;;;15.60;99.90;;;;;;4962028;28;20066;-81
2022/09/14 11:29:18;;;;;;;10.23;2.63;;;15.60;99.90;;;;;;4955526;28;20036;-81
2022/09/14 11:31:59;;;;;;;5.72;2.95;;;15.70;99.90;;;;;;4938959;28;20032;-81
2022/09/14 11:34:32;;;;;;;8.27;3.28;;;15.70;99.90;;;;;;4905335;28;20043;-81
2022/09/14 11:37:13;;;;;;;4.40;3.50;;;15.70;99.90;;;;;;4943356;28;20035;-81
2022/09/14 11:39:44;;;;;;;4.45;3.55;;;15.70;99.90;;;;;;4930161;28;20035;-82
2022/09/14 11:42:17;;;;;;;3.63;3.10;;;15.70;99.90;;;;;;4947589;28;20043;-81
2022/09/14 11:44:45;;;;;;;6.55;3.05;;;15.70;99.90;;;;;;4955709;28;20549;-81
2022/09/14 11:47:18;;;;;;;7.32;2.90;;;15.70;99.90;;;;;;4952656;28;20062;-82
2022/09/14 11:49:59;;;;;;;6.00;3.10;;;15.70;99.90;;;;;;4965121;28;20055;-81
2022/09/14 11:52:28;;;;;;;5.05;2.45;;;15.70;99.90;;;;;;4958178;28;20062;-81
2022/09/14 11:54:54;;;;;;;3.40;1.92;;;15.70;99.90;;;;;;4959590;28;20045;-81
2022/09/14 11:57:27;;;;;;;6.57;2.47;;;15.70;99.90;;;;;;4959188;28;20035;-81
2022/09/14 12:00:06;;;;;;;3.38;2.40;;;15.80;99.90;;;;;;4943556;28;20541;-82
2022/09/14 12:02:34;;;;;;;6.38;2.55;;;15.80;99.90;;;;;;4917618;28;20031;-81
2022/09/14 12:05:06;;;;;;;5.15;2.53;;;15.80;99.90;;;;;;4944789;28;20127;-82
2022/09/14 12:07:49;;;;;;;3.22;1.80;;;15.90;99.90;;;;;;4959155;28;20034;-81
2022/09/14 12:10:17;;;;;;;6.35;1.90;;;15.90;99.90;;;;;;4962579;28;20531;-81
2022/09/14 12:12:56;;;;;;;4.40;2.42;;;15.90;99.90;;;;;;4957559;28;20496;-82
2022/09/14 12:15:25;;;;;;;6.45;2.17;;;15.90;99.90;;;;;;4960190;28;20548;-81
2022/09/14 12:18:17;;;;;;;2.42;1.75;;;15.90;99.90;;;;;;4961643;28;20049;-82
2022/09/14 12:20:44;;;;;;;3.53;2.28;;;15.80;99.90;;;;;;4951111;28;20035;-82
2022/09/14 12:23:38;;;;;;;5.13;2.33;;;15.80;99.90;;;;;;4933805;28;20094;-81
2022/09/14 12:26:09;;;;;;;7.68;2.47;;;15.80;99.90;;;;;;4958897;28;20086;-81
2022/09/14 12:28:38;;;;;;;6.82;2.47;;;15.80;99.90;;;;;;4960584;28;20027;-81
2022/09/14 12:31:04;;;;;;;11.18;2.85;;;15.80;99.90;;;;;;4965239;28;20037;-81
2022/09/14 12:33:32;;;;;;;7.90;2.40;;;15.80;99.90;;;;;;4957674;28;20106;-82
2022/09/14 12:36:31;;;;;;;6.03;2.85;;;15.80;99.90;;;;;;4960469;28;20031;-81
2022/09/14 12:38:56;;;;;;;6.32;2.70;;;15.80;99.90;;;;;;4959095;28;20033;-82
2022/09/14 12:41:24;;;;;;;11.05;2.63;;;15.80;99.90;;;;;;4959257;28;20445;-81
2022/09/14 12:43:49;;;;;;;2.75;1.55;;;15.90;99.90;;;;;;4960368;28;20058;-82
2022/09/14 12:46:21;;;;;;;2.35;1.60;;;15.90;99.90;;;;;;4957088;28;20118;-81
2022/09/14 12:48:47;;;;;;;2.72;1.45;;;15.80;99.90;;;;;;4974194;28;20035;-82
2022/09/14 12:51:31;;;;;;;4.50;1.58;;;15.80;99.90;;;;;;4960420;28;20034;-83
2022/09/14 12:54:09;;;;;;;3.55;1.25;;;15.80;99.90;;;;;;4958321;28;20069;-81
2022/09/14 12:56:46;;;;;;;4.47;1.80;;;15.80;99.90;;;;;;4964030;28;20840;-81
2022/09/14 12:59:27;;;;;;;5.30;1.83;;;15.80;99.90;;;;;;4940090;28;20034;-80
2022/09/14 13:02:30;;;;;;;4.30;1.90;;;15.80;99.90;;;;;;4951782;28;20039;-81